createdAt,value
2018-10-19T00:00:58.226Z,94229.45
2018-10-19T00:03:25.778Z,94227.60
2018-10-19T00:05:53.321Z,94232.84
2018-10-19T00:08:20.866Z,94238.41
2018-10-19T00:10:48.472Z,94229.38
2018-10-19T00:13:16.031Z,94226.98
2018-10-19T00:15:43.818Z,94229.81
2018-10-19T00:18:11.351Z,94229.17
2018-10-19T00:20:38.940Z,94231.80
2018-10-19T00:23:06.539Z,94225.45
2018-10-19T00:25:34.046Z,94225.09
2018-10-19T00:28:01.596Z,94225.69
2018-10-19T00:30:29.118Z,94225.54
2018-10-19T00:32:56.658Z,94224.06
2018-10-19T00:35:25.314Z,94224.14
2018-10-19T00:37:52.945Z,94222.50
2018-10-19T00:40:20.526Z,94227.41
2018-10-19T00:42:48.310Z,94226.59
2018-10-19T00:45:15.932Z,94229.77
2018-10-19T00:47:43.510Z,94224.58
2018-10-19T00:50:11.290Z,94230.80
2018-10-19T00:52:38.819Z,94230.09
2018-10-19T00:55:06.463Z,94226.38
2018-10-19T00:57:34.028Z,94229.11
2018-10-19T01:00:01.627Z,94217.80
2018-10-19T01:02:29.207Z,94223.42
2018-10-19T01:04:56.807Z,94211.27
2018-10-19T01:07:24.336Z,94212.86
2018-10-19T01:09:51.867Z,94215.52
2018-10-19T01:12:19.396Z,94209.89
2018-10-19T01:14:47.033Z,94208.47
2018-10-19T01:17:14.782Z,94207.45
2018-10-19T01:19:42.232Z,94199.85
2018-10-19T01:22:09.790Z,94197.90
2018-10-19T01:24:37.318Z,94196.70
2018-10-19T01:27:05.553Z,94191.61
2018-10-19T01:29:33.102Z,94190.25
2018-10-19T01:32:00.625Z,94193.58
2018-10-19T01:34:28.183Z,94192.27
2018-10-19T01:36:55.813Z,94190.30
2018-10-19T01:39:23.371Z,94197.25
2018-10-19T01:41:51.163Z,94199.25
2018-10-19T01:44:18.820Z,94201.33
2018-10-19T01:46:49.435Z,94204.98
2018-10-19T01:49:18.208Z,94201.94
2018-10-19T01:51:45.723Z,94203.61
2018-10-19T01:54:13.274Z,94203.33
2018-10-19T01:56:41.523Z,94198.13
2018-10-19T01:59:09.119Z,94189.96
2018-10-19T02:01:36.867Z,94186.40
2018-10-19T02:04:04.500Z,94187.38
2018-10-19T02:06:32.071Z,94194.70
2018-10-19T02:08:59.832Z,94191.47
2018-10-19T02:11:27.455Z,94198.66
2018-10-19T02:13:54.979Z,94190.03
2018-10-19T02:16:22.518Z,94200.54
2018-10-19T02:18:50.219Z,94197.95
2018-10-19T02:21:17.755Z,94199.92
2018-10-19T02:23:45.294Z,94206.09
2018-10-19T02:26:12.845Z,94200.54
2018-10-19T02:28:40.430Z,94201.26
2018-10-19T02:31:07.983Z,94202.41
2018-10-19T02:33:35.539Z,94202.11
2018-10-19T02:36:03.121Z,94202.63
2018-10-19T02:38:30.660Z,94200.80
2018-10-19T02:40:58.263Z,94196.09
2018-10-19T02:43:25.763Z,94195.11
2018-10-19T02:45:53.300Z,94190.87
2018-10-19T02:48:20.872Z,94189.91
2018-10-19T02:50:48.440Z,94186.67
2018-10-19T02:53:16.377Z,94185.05
2018-10-19T02:55:43.832Z,94182.62
2018-10-19T02:58:11.334Z,94189.29
2018-10-19T03:00:38.871Z,94185.73
2018-10-19T03:03:06.445Z,94185.72
2018-10-19T03:05:33.964Z,94193.56
2018-10-19T03:08:01.575Z,94189.31
2018-10-19T03:10:29.115Z,94188.04
2018-10-19T03:12:56.641Z,94186.35
2018-10-19T03:15:24.189Z,94191.61
2018-10-19T03:17:51.795Z,94189.16
2018-10-19T03:20:19.350Z,94191.94
2018-10-19T03:22:46.878Z,94191.58
2018-10-19T03:25:14.410Z,94185.40
2018-10-19T03:27:41.958Z,94188.31
2018-10-19T03:30:09.526Z,94190.92
2018-10-19T03:32:37.087Z,94187.33
2018-10-19T03:35:05.110Z,94187.98
2018-10-19T03:37:32.976Z,94189.23
2018-10-19T03:40:00.520Z,94185.11
2018-10-19T03:42:28.057Z,94188.70
2018-10-19T03:44:55.641Z,94185.27
2018-10-19T03:47:23.124Z,94188.22
2018-10-19T03:49:50.659Z,94189.12
2018-10-19T03:52:18.211Z,94192.36
2018-10-19T03:54:45.998Z,94193.67
2018-10-19T03:57:13.583Z,94193.95
2018-10-19T03:59:41.158Z,94195.59
2018-10-19T04:02:08.717Z,94191.96
2018-10-19T04:04:36.246Z,94194.94
2018-10-19T04:07:04.102Z,94199.03
2018-10-19T04:09:31.656Z,94202.63
2018-10-19T04:11:59.201Z,94192.35
2018-10-19T04:14:26.752Z,94197.83
2018-10-19T04:16:54.367Z,94194.70
2018-10-19T04:19:21.898Z,94194.32
2018-10-19T04:21:49.432Z,94196.98
2018-10-19T04:24:16.994Z,94204.72
2018-10-19T04:26:44.558Z,94197.77
2018-10-19T04:29:12.199Z,94196.17
2018-10-19T04:31:39.831Z,94197.97
2018-10-19T04:34:07.362Z,94192.58
2018-10-19T04:36:34.930Z,94197.73
2018-10-19T04:39:02.651Z,94200.06
2018-10-19T04:41:30.265Z,94201.28
2018-10-19T04:43:57.745Z,94195.19
2018-10-19T04:46:25.303Z,94200.55
2018-10-19T04:48:52.839Z,94199.48
2018-10-19T04:51:20.698Z,94205.98
2018-10-19T04:53:48.271Z,94210.23
2018-10-19T04:56:15.795Z,94215.30
2018-10-19T04:58:43.354Z,94216.16
2018-10-19T05:01:10.874Z,94214.53
2018-10-19T05:03:38.447Z,94211.91
2018-10-19T05:06:06.024Z,94214.89
2018-10-19T05:08:33.790Z,94222.73
2018-10-19T05:11:01.729Z,94221.63
2018-10-19T05:13:29.203Z,94221.75
2018-10-19T05:15:56.754Z,94225.28
2018-10-19T05:18:24.577Z,94221.09
2018-10-19T05:20:52.103Z,94224.41
2018-10-19T05:23:19.633Z,94227.02
2018-10-19T05:25:47.418Z,94226.07
2018-10-19T05:28:14.938Z,94224.77
2018-10-19T05:30:42.498Z,94228.69
2018-10-19T05:33:10.294Z,94238.14
2018-10-19T05:35:37.815Z,94237.81
2018-10-19T05:38:05.407Z,94246.31
2018-10-19T05:40:32.971Z,94239.05
2018-10-19T05:43:00.525Z,94244.34
2018-10-19T05:45:28.030Z,94238.14
2018-10-19T05:47:55.578Z,94240.13
2018-10-19T05:50:23.119Z,94246.25
2018-10-19T05:52:50.975Z,94247.59
2018-10-19T05:55:18.494Z,94246.28
2018-10-19T05:57:46.004Z,94248.59
2018-10-19T06:00:13.576Z,94251.22
2018-10-19T06:02:41.243Z,94252.84
2018-10-19T06:05:09.218Z,94258.47
2018-10-19T06:07:36.719Z,94264.38
2018-10-19T06:10:04.922Z,94270.29
2018-10-19T06:12:32.479Z,94269.61
2018-10-19T06:15:00.008Z,94274.84
2018-10-19T06:17:27.555Z,94286.61
2018-10-19T06:19:55.133Z,94292.51
2018-10-19T06:22:22.696Z,94296.06
2018-10-19T06:24:50.311Z,94298.70
2018-10-19T06:27:17.858Z,94301.31
2018-10-19T06:29:45.378Z,94300.64
2018-10-19T06:32:13.018Z,94305.22
2018-10-19T06:34:40.518Z,94303.25
2018-10-19T06:37:08.067Z,94309.11
2018-10-19T06:39:35.591Z,94311.02
2018-10-19T06:42:03.167Z,94313.94
2018-10-19T06:44:30.862Z,94308.37
2018-10-19T06:46:58.610Z,94313.91
2018-10-19T06:49:26.141Z,94314.92
2018-10-19T06:51:53.658Z,94315.63
2018-10-19T06:54:21.210Z,94312.95
2018-10-19T06:56:48.773Z,94318.52
2018-10-19T06:59:16.450Z,94314.23
2018-10-19T07:01:43.994Z,94326.04
2018-10-19T07:04:11.823Z,94332.28
2018-10-19T07:06:39.369Z,94330.27
2018-10-19T07:09:07.441Z,94326.64
2018-10-19T07:11:35.006Z,94330.56
2018-10-19T07:14:02.676Z,94330.56
2018-10-19T07:16:30.207Z,94342.34
2018-10-19T07:18:57.791Z,94339.04
2018-10-19T07:21:25.659Z,94347.19
2018-10-19T07:23:53.211Z,94341.23
2018-10-19T07:26:20.801Z,94351.05
2018-10-19T07:28:48.375Z,94343.16
2018-10-19T07:31:16.010Z,94346.73
2018-10-19T07:33:43.567Z,94348.04
2018-10-19T07:36:11.118Z,94350.27
2018-10-19T07:38:38.654Z,94351.04
2018-10-19T07:41:06.245Z,94351.45
2018-10-19T07:43:33.842Z,94352.67
2018-10-19T07:46:01.441Z,94351.84
2018-10-19T07:48:29.040Z,94355.73
2018-10-19T07:50:56.601Z,94355.33
2018-10-19T07:53:24.527Z,94358.66
2018-10-19T07:55:52.277Z,94363.25
2018-10-19T07:58:19.837Z,94356.47
2018-10-19T08:00:47.766Z,94355.53
2018-10-19T08:03:15.290Z,94360.41
2018-10-19T08:05:42.859Z,94359.98
2018-10-19T08:08:10.485Z,94360.64
2018-10-19T08:10:37.963Z,94358.20
2018-10-19T08:13:05.613Z,94359.77
2018-10-19T08:15:33.243Z,94357.77
2018-10-19T08:18:00.770Z,94349.87
2018-10-19T08:20:28.326Z,94350.14
2018-10-19T08:22:55.867Z,94355.88
2018-10-19T08:25:23.436Z,94357.98
2018-10-19T08:27:51.987Z,94357.32
2018-10-19T08:30:20.381Z,94362.56
2018-10-19T08:32:47.925Z,94359.67
2018-10-19T08:35:15.500Z,94358.56
2018-10-19T08:37:44.094Z,94354.86
2018-10-19T08:40:11.620Z,94359.40
2018-10-19T08:42:39.202Z,94367.03
2018-10-19T08:45:07.001Z,94368.26
2018-10-19T08:47:34.511Z,94371.52
2018-10-19T08:50:02.076Z,94370.42
2018-10-19T08:52:29.659Z,94376.66
2018-10-19T08:54:57.183Z,94372.95
2018-10-19T08:57:24.718Z,94371.11
2018-10-19T08:59:52.319Z,94374.38
2018-10-19T09:02:19.895Z,94377.53
2018-10-19T09:04:47.438Z,94375.20
2018-10-19T09:07:15.234Z,94376.19
2018-10-19T09:09:42.768Z,94378.00
2018-10-19T09:12:10.307Z,94383.94
2018-10-19T09:14:49.875Z,94381.14
2018-10-19T09:17:17.619Z,94378.94
2018-10-19T09:19:45.380Z,94377.00
2018-10-19T09:22:12.979Z,94380.34
2018-10-19T09:24:40.592Z,94378.53
2018-10-19T09:27:08.233Z,94377.19
2018-10-19T09:29:36.034Z,94383.94
2018-10-19T09:32:03.534Z,94370.83
2018-10-19T09:34:31.066Z,94374.97
2018-10-19T09:36:58.684Z,94371.44
2018-10-19T09:39:26.215Z,94376.50
2018-10-19T09:41:53.804Z,94372.98
2018-10-19T09:44:21.379Z,94376.16
2018-10-19T09:46:48.925Z,94377.63
2018-10-19T09:49:16.496Z,94374.86
2018-10-19T09:51:44.023Z,94378.05
2018-10-19T09:54:12.071Z,94373.78
2018-10-19T09:56:39.702Z,94381.42
2018-10-19T09:59:07.283Z,94386.08
2018-10-19T10:01:35.439Z,94389.95
2018-10-19T10:04:03.023Z,94385.77
2018-10-19T10:06:30.539Z,94388.91
2018-10-19T10:08:58.257Z,94387.31
2018-10-19T10:11:25.815Z,94385.08
2018-10-19T10:13:53.375Z,94377.55
2018-10-19T10:16:21.102Z,94376.19
2018-10-19T10:18:48.738Z,94365.88
2018-10-19T10:21:16.366Z,94368.83
2018-10-19T10:23:44.185Z,94369.38
2018-10-19T10:26:12.480Z,94366.80
2018-10-19T10:28:40.040Z,94370.74
2018-10-19T10:31:07.665Z,94371.06
2018-10-19T10:33:35.214Z,94365.55
2018-10-19T10:36:03.206Z,94364.77
2018-10-19T10:38:30.964Z,94371.45
2018-10-19T10:40:58.574Z,94367.19
2018-10-19T10:43:26.121Z,94366.33
2018-10-19T10:45:53.698Z,94373.97
2018-10-19T10:48:21.257Z,94361.20
2018-10-19T10:50:48.834Z,94360.79
2018-10-19T10:53:16.622Z,94356.71
2018-10-19T10:55:44.238Z,94356.05
2018-10-19T10:58:11.899Z,94349.92
2018-10-19T11:00:39.478Z,94347.77
2018-10-19T11:03:07.400Z,94347.09
2018-10-19T11:05:34.951Z,94340.09
2018-10-19T11:08:02.510Z,94342.36
2018-10-19T11:10:30.169Z,94338.20
2018-10-19T11:12:57.758Z,94342.38
2018-10-19T11:15:25.589Z,94338.53
2018-10-19T11:17:53.140Z,94344.63
2018-10-19T11:20:20.688Z,94334.69
2018-10-19T11:22:48.267Z,94338.72
2018-10-19T11:25:15.912Z,94342.13
2018-10-19T11:27:43.427Z,94335.45
2018-10-19T11:30:10.974Z,94335.52
2018-10-19T11:32:38.553Z,94335.83
2018-10-19T11:35:06.331Z,94336.83
2018-10-19T11:37:33.928Z,94332.19
2018-10-19T11:40:07.056Z,94331.18
2018-10-19T11:42:34.638Z,94327.84
2018-10-19T11:45:02.226Z,94323.77
2018-10-19T11:47:29.783Z,94319.40
2018-10-19T11:49:57.299Z,94321.23
2018-10-19T11:52:25.853Z,94319.77
2018-10-19T11:54:53.457Z,94318.19
2018-10-19T11:57:20.966Z,94320.41
2018-10-19T11:59:48.532Z,94318.98
2018-10-19T12:02:16.091Z,94320.60
2018-10-19T12:04:43.644Z,94323.58
2018-10-19T12:07:11.232Z,94319.45
2018-10-19T12:09:38.739Z,94316.98
2018-10-19T12:12:06.358Z,94317.17
2018-10-19T12:14:33.926Z,94320.12
2018-10-19T12:17:01.686Z,94321.16
2018-10-19T12:19:29.099Z,94326.41
2018-10-19T12:21:56.678Z,94316.75
2018-10-19T12:24:24.281Z,94325.45
2018-10-19T12:26:51.836Z,94318.23
2018-10-19T12:29:19.397Z,94315.02
2018-10-19T12:31:46.957Z,94314.01
2018-10-19T12:34:14.508Z,94317.95
2018-10-19T12:36:42.309Z,94316.73
2018-10-19T12:39:10.531Z,94310.03
2018-10-19T12:41:38.040Z,94315.63
2018-10-19T12:44:05.663Z,94316.14
2018-10-19T12:46:42.887Z,94319.16
2018-10-19T12:49:11.848Z,94322.86
2018-10-19T12:51:39.453Z,94309.54
2018-10-19T12:54:07.387Z,94306.41
2018-10-19T12:56:35.180Z,94306.33
2018-10-19T12:59:02.822Z,94310.09
2018-10-19T13:01:30.975Z,94307.78
2018-10-19T13:03:59.186Z,94314.39
2018-10-19T13:06:26.776Z,94311.78
2018-10-19T13:08:54.378Z,94307.33
2018-10-19T13:11:23.369Z,94305.30
2018-10-19T13:13:51.018Z,94311.41
2018-10-19T13:16:18.580Z,94314.24
2018-10-19T13:18:46.130Z,94311.59
2018-10-19T13:21:13.813Z,94313.05
2018-10-19T13:23:41.328Z,94308.94
2018-10-19T13:26:09.014Z,94310.55
2018-10-19T13:28:36.555Z,94309.75
2018-10-19T13:31:04.260Z,94316.30
2018-10-19T13:33:32.143Z,94311.56
2018-10-19T13:35:59.708Z,94310.51
2018-10-19T13:38:27.247Z,94308.31
2018-10-19T13:40:55.106Z,94309.20
2018-10-19T13:43:23.066Z,94314.23
2018-10-19T13:45:52.073Z,94298.30
2018-10-19T13:48:20.275Z,94307.20
2018-10-19T13:50:47.843Z,94303.19
2018-10-19T13:53:15.642Z,94299.98
2018-10-19T13:55:43.315Z,94305.77
2018-10-19T13:58:10.898Z,94301.13
2018-10-19T14:00:38.528Z,94297.47
2018-10-19T14:03:06.792Z,94293.39
2018-10-19T14:05:34.527Z,94288.53
2018-10-19T14:08:02.265Z,94291.45
2018-10-19T14:10:29.774Z,94290.95
2018-10-19T14:12:57.343Z,94290.10
2018-10-19T14:15:24.943Z,94285.77
2018-10-19T14:17:52.515Z,94287.67
2018-10-19T14:20:20.099Z,94283.44
2018-10-19T14:22:47.682Z,94278.98
2018-10-19T14:25:15.278Z,94282.82
2018-10-19T14:27:43.753Z,94275.33
2018-10-19T14:30:13.479Z,94277.84
2018-10-19T14:32:41.619Z,94270.05
2018-10-19T14:35:09.885Z,94272.90
2018-10-19T14:37:38.618Z,94274.92
2018-10-19T14:40:07.467Z,94270.14
2018-10-19T14:42:35.160Z,94274.34
2018-10-19T14:45:03.996Z,94275.09
2018-10-19T14:47:31.518Z,94272.69
2018-10-19T14:49:59.241Z,94272.47
2018-10-19T14:52:26.829Z,94280.81
2018-10-19T14:54:54.366Z,94283.39
2018-10-19T14:57:21.961Z,94283.16
2018-10-19T14:59:49.555Z,94288.74
2018-10-19T15:02:17.087Z,94278.00
2018-10-19T15:04:44.674Z,94283.91
2018-10-19T15:07:12.267Z,94289.69
2018-10-19T15:09:40.041Z,94285.42
2018-10-19T15:12:07.885Z,94298.28
2018-10-19T15:14:35.682Z,94296.17
2018-10-19T15:17:03.350Z,94304.83
2018-10-19T15:19:30.888Z,94301.57
2018-10-19T15:21:58.766Z,94303.80
2018-10-19T15:24:26.315Z,94308.45
2018-10-19T15:26:53.895Z,94313.64
2018-10-19T15:29:21.516Z,94314.66
2018-10-19T15:31:49.038Z,94318.30
2018-10-19T15:34:16.610Z,94317.61
2018-10-19T15:36:44.590Z,94314.73
2018-10-19T15:39:12.301Z,94319.70
2018-10-19T15:41:40.350Z,94314.45
2018-10-19T15:44:07.927Z,94312.10
2018-10-19T15:46:35.555Z,94313.03
2018-10-19T15:49:03.222Z,94320.95
2018-10-19T15:51:30.880Z,94316.09
2018-10-19T15:53:58.555Z,94321.03
2018-10-19T15:56:26.123Z,94322.77
2018-10-19T15:58:53.665Z,94322.15
2018-10-19T16:01:21.222Z,94322.06
2018-10-19T16:03:49.102Z,94327.12
2018-10-19T16:06:16.738Z,94325.31
2018-10-19T16:08:44.297Z,94329.55
2018-10-19T16:11:11.868Z,94333.23
2018-10-19T16:13:39.449Z,94344.77
2018-10-19T16:16:07.486Z,94340.73
2018-10-19T16:18:35.039Z,94344.59
2018-10-19T16:21:02.863Z,94342.36
2018-10-19T16:23:30.562Z,94344.39
2018-10-19T16:25:58.142Z,94339.70
2018-10-19T16:28:25.690Z,94346.63
2018-10-19T16:30:53.499Z,94355.55
2018-10-19T16:33:21.083Z,94356.77
2018-10-19T16:35:48.612Z,94359.46
2018-10-19T16:38:16.158Z,94354.08
2018-10-19T16:40:43.780Z,94355.73
2018-10-19T16:43:11.339Z,94359.48
2018-10-19T16:45:38.917Z,94364.97
2018-10-19T16:48:06.658Z,94363.83
2018-10-19T16:50:34.225Z,94366.86
2018-10-19T16:53:01.970Z,94371.16
2018-10-19T16:55:29.646Z,94374.78
2018-10-19T16:57:57.234Z,94380.03
2018-10-19T17:00:24.862Z,94379.50
2018-10-19T17:02:53.595Z,94390.56
2018-10-19T17:05:21.179Z,94392.04
2018-10-19T17:07:49.682Z,94396.06
2018-10-19T17:10:17.323Z,94403.36
2018-10-19T17:12:44.915Z,94401.09
2018-10-19T17:15:12.621Z,94404.55
2018-10-19T17:17:40.125Z,94403.06
2018-10-19T17:20:07.740Z,94403.89
2018-10-19T17:22:35.614Z,94408.88
2018-10-19T17:25:03.501Z,94415.45
2018-10-19T17:27:31.027Z,94407.27
2018-10-19T17:29:58.720Z,94410.47
2018-10-19T17:32:26.321Z,94421.02
2018-10-19T17:34:53.932Z,94424.41
2018-10-19T17:37:21.743Z,94425.16
2018-10-19T17:39:49.520Z,94427.80
2018-10-19T17:42:17.089Z,94427.04
2018-10-19T17:44:44.685Z,94427.67
2018-10-19T17:47:12.328Z,94430.06
2018-10-19T17:49:39.815Z,94433.06
2018-10-19T17:52:07.642Z,94433.25
2018-10-19T17:54:35.255Z,94435.95
2018-10-19T17:57:02.906Z,94427.17
2018-10-19T17:59:30.461Z,94423.94
2018-10-19T18:01:58.017Z,94419.96
2018-10-19T18:04:25.645Z,94424.61
2018-10-19T18:06:53.454Z,94418.04
2018-10-19T18:09:21.078Z,94428.16
2018-10-19T18:11:48.616Z,94429.55
2018-10-19T18:14:16.273Z,94428.80
2018-10-19T18:16:43.852Z,94431.79
2018-10-19T18:19:11.481Z,94438.14
2018-10-19T18:21:39.183Z,94437.67
2018-10-19T18:24:06.711Z,94432.31
2018-10-19T18:26:34.316Z,94435.67
2018-10-19T18:29:01.941Z,94440.35
2018-10-19T18:31:30.119Z,94439.38
2018-10-19T18:33:57.689Z,94443.95
2018-10-19T18:36:25.279Z,94442.55
2018-10-19T18:38:52.849Z,94445.37
2018-10-19T18:41:20.462Z,94449.27
2018-10-19T18:43:48.105Z,94448.27
2018-10-19T18:46:15.695Z,94452.44
2018-10-19T18:48:43.426Z,94456.12
2018-10-19T18:51:11.069Z,94450.28
2018-10-19T18:53:38.726Z,94459.81
2018-10-19T18:56:06.319Z,94456.86
2018-10-19T18:58:33.903Z,94462.93
2018-10-19T19:01:01.438Z,94466.05
2018-10-19T19:03:29.035Z,94469.75
2018-10-19T19:05:56.670Z,94473.98
2018-10-19T19:08:24.231Z,94475.84
2018-10-19T19:10:51.815Z,94474.35
2018-10-19T19:13:25.073Z,94481.02
2018-10-19T19:15:52.614Z,94491.52
2018-10-19T19:18:20.186Z,94493.05
2018-10-19T19:20:47.839Z,94494.16
2018-10-19T19:23:15.526Z,94502.08
2018-10-19T19:25:48.666Z,94506.11
2018-10-19T19:28:16.286Z,94516.16
2018-10-19T19:30:43.873Z,94521.33
2018-10-19T19:33:17.059Z,94518.79
2018-10-19T19:35:44.635Z,94522.63
2018-10-19T19:38:12.271Z,94521.20
2018-10-19T19:40:45.400Z,94530.78
2018-10-19T19:43:13.025Z,94541.39
2018-10-19T19:45:40.620Z,94525.70
2018-10-19T19:48:13.898Z,94533.16
2018-10-19T19:50:41.503Z,94538.45
2018-10-19T19:53:09.101Z,94537.50
2018-10-19T19:55:36.640Z,94543.17
2018-10-19T19:58:04.469Z,94542.06
2018-10-19T20:00:31.982Z,94543.93
2018-10-19T20:02:59.590Z,94543.07
2018-10-19T20:05:27.165Z,94544.58
2018-10-19T20:07:54.790Z,94546.06
2018-10-19T20:10:22.370Z,94544.09
2018-10-19T20:12:49.999Z,94544.16
2018-10-19T20:15:17.575Z,94545.52
2018-10-19T20:17:45.203Z,94547.55
2018-10-19T20:20:13.058Z,94551.96
2018-10-19T20:22:41.275Z,94550.54
2018-10-19T20:25:10.097Z,94554.63
2018-10-19T20:27:38.356Z,94551.82
2018-10-19T20:30:07.259Z,94555.42
2018-10-19T20:32:34.960Z,94549.23
2018-10-19T20:35:02.634Z,94551.84
2018-10-19T20:37:30.327Z,94550.70
2018-10-19T20:39:57.964Z,94548.95
2018-10-19T20:42:25.552Z,94551.23
2018-10-19T20:44:53.107Z,94558.13
2018-10-19T20:47:20.663Z,94564.05
2018-10-19T20:49:48.226Z,94560.14
2018-10-19T20:52:15.775Z,94562.42
2018-10-19T20:54:43.344Z,94561.45
2018-10-19T20:57:10.897Z,94551.91
2018-10-19T20:59:38.553Z,94550.93
2018-10-19T21:02:06.191Z,94552.23
2018-10-19T21:04:33.666Z,94553.22
2018-10-19T21:07:01.218Z,94558.27
2018-10-19T21:09:28.784Z,94563.73
2018-10-19T21:11:56.314Z,94565.08
2018-10-19T21:14:23.911Z,94560.09
2018-10-19T21:16:51.510Z,94567.30
2018-10-19T21:19:19.102Z,94567.45
2018-10-19T21:21:46.697Z,94566.99
2018-10-19T21:24:14.223Z,94571.56
2018-10-19T21:26:41.804Z,94570.93
2018-10-19T21:29:09.659Z,94565.86
2018-10-19T21:31:37.214Z,94566.03
2018-10-19T21:34:04.822Z,94561.13
2018-10-19T21:36:32.368Z,94568.98
2018-10-19T21:38:59.920Z,94565.55
2018-10-19T21:41:28.006Z,94568.01
2018-10-19T21:43:55.578Z,94568.67
2018-10-19T21:46:23.124Z,94569.28
2018-10-19T21:48:50.654Z,94569.95
2018-10-19T21:51:18.229Z,94575.53
2018-10-19T21:53:45.907Z,94577.20
2018-10-19T21:56:13.683Z,94582.08
2018-10-19T21:58:41.075Z,94583.08
2018-10-19T22:01:08.745Z,94591.27
2018-10-19T22:03:36.301Z,94592.25
2018-10-19T22:06:04.019Z,94600.27
2018-10-19T22:08:31.678Z,94595.85
2018-10-19T22:10:59.297Z,94595.20
2018-10-19T22:13:26.795Z,94596.51
2018-10-19T22:15:54.371Z,94595.85
2018-10-19T22:18:21.944Z,94594.53
2018-10-19T22:20:49.518Z,94599.45
2018-10-19T22:23:17.183Z,94593.22
2018-10-19T22:25:44.900Z,94600.75
2018-10-19T22:28:12.479Z,94603.03
2018-10-19T22:30:40.071Z,94602.05
2018-10-19T22:33:07.887Z,94600.09
2018-10-19T22:35:35.452Z,94599.58
2018-10-19T22:38:02.979Z,94598.45
2018-10-19T22:40:30.891Z,94591.92
2018-10-19T22:42:58.609Z,94594.04
2018-10-19T22:45:26.111Z,94587.33
2018-10-19T22:47:53.687Z,94592.70
2018-10-19T22:50:21.310Z,94588.33
2018-10-19T22:52:48.913Z,94590.94
2018-10-19T22:55:16.542Z,94586.36
2018-10-19T22:57:44.041Z,94587.98
2018-10-19T23:00:11.597Z,94588.01
2018-10-19T23:02:39.131Z,94592.25
2018-10-19T23:05:06.724Z,94593.90
2018-10-19T23:07:34.264Z,94587.98
2018-10-19T23:10:01.818Z,94581.45
2018-10-19T23:12:29.390Z,94578.86
2018-10-19T23:14:56.929Z,94577.86
2018-10-19T23:17:24.467Z,94578.17
2018-10-19T23:19:52.074Z,94578.84
2018-10-19T23:22:19.647Z,94591.25
2018-10-19T23:24:47.191Z,94585.33
2018-10-19T23:27:14.723Z,94585.97
2018-10-19T23:29:42.251Z,94585.30
2018-10-19T23:32:09.793Z,94582.35
2018-10-19T23:34:37.409Z,94584.63
2018-10-19T23:37:05.014Z,94580.05
2018-10-19T23:39:32.523Z,94585.45
2018-10-19T23:42:00.034Z,94592.77
2018-10-19T23:44:27.555Z,94586.53
2018-10-19T23:46:55.164Z,94583.63
2018-10-19T23:49:22.715Z,94587.55
2018-10-19T23:51:50.283Z,94582.65
2018-10-19T23:54:17.816Z,94589.19
2018-10-19T23:56:45.601Z,94591.42
2018-10-19T23:59:13.144Z,94592.39
